Snow/Ice From: 16-12-2017 16:00 Until: 17-12-2017 16:00 warning for: Snow/Ice Level: Yellow info button

Although rather usual in this region, locally or potentially dangerous phenomena are expected. (such as local winds, summer thunderstorms, rising streams or high waves) Be aware and pay attention to the latest weather updates, especially if you carry out activities exposed to weather or close to a stream or shoreline. 


Meteo18 Weather Cam more information Meteo18 Weather Cam


Thunder radar more information blitzortung!


warning for Snow/Ice more information rain snow radar


Visit our other weather sites:

Template documentation
and downloads

And another site



Weather Underground History page Text

Daily Summary for December 8, 2016 Units:  Metric    English   Both
« Previous Day
Next Day »
Daily Weekly Monthly Yearly Custom
  High: Low: Average:
Temperature: 9.1 °C -1.1 °C 3.3 °C
Dew Point: 4.3 °C -1.7 °C 1.1 °C
Humidity: 97 % 68 % 86 %
Wind Speed: 3.2 km/h 0.0 km/h 0.2 km/h
Wind Gust: 4.8 km/h - -
Wind:- - SSW
Pressure: 1034.4 hPa 1032.1 hPa -
Precipitation: 0.3 mm    
Historical Graphs
 
 
Tabular Data for December 8, 2016
Time Temperature Dew Point Pressure Wind Wind Speed Wind Gust Humidity Rainfall Rate (Hourly)
00:02 1.9 °C 1.0 °C 1033.4 hPa Calm     94 % 0.0 mm
00:07 1.9 °C 1.0 °C 1033.4 hPa Calm     94 % 0.0 mm
00:12 1.8 °C 0.9 °C 1033.4 hPa Calm     94 % 0.0 mm
00:17 1.6 °C 0.6 °C 1033.4 hPa Calm     93 % 0.0 mm
00:23 1.4 °C 0.5 °C 1033.4 hPa Calm     94 % 0.0 mm
00:32 1.4 °C 0.5 °C 1033.4 hPa Calm     94 % 0.0 mm
00:42 1.4 °C 0.5 °C 1033.4 hPa Calm     94 % 0.0 mm
00:47 1.3 °C 0.4 °C 1033.4 hPa Calm     94 % 0.0 mm
00:52 1.1 °C 0.2 °C 1033.4 hPa Calm     94 % 0.0 mm
00:57 1.0 °C 0.1 °C 1033.4 hPa Calm     94 % 0.0 mm
01:02 1.0 °C 0.3 °C 1033.4 hPa Calm     95 % 0.0 mm
01:07 1.1 °C 0.4 °C 1033.4 hPa Calm     95 % 0.0 mm
01:17 1.0 °C 0.3 °C 1033.7 hPa Calm     95 % 0.0 mm
01:22 0.7 °C -0.2 °C 1033.7 hPa Calm     94 % 0.0 mm
01:27 0.6 °C -0.3 °C 1033.7 hPa Calm     94 % 0.0 mm
01:32 0.7 °C 0.0 °C 1033.7 hPa Calm     95 % 0.0 mm
01:37 0.8 °C 0.1 °C 1033.4 hPa Calm     95 % 0.0 mm
01:42 0.9 °C 0.2 °C 1033.4 hPa Calm     95 % 0.0 mm
01:47 0.8 °C 0.1 °C 1033.4 hPa Calm     95 % 0.0 mm
01:52 0.7 °C 0.0 °C 1033.4 hPa Calm   1.6 km/h 95 % 0.0 mm
01:57 0.7 °C 0.0 °C 1033.4 hPa Calm   1.6 km/h 95 % 0.0 mm
02:02 0.7 °C 0.0 °C 1033.4 hPa Calm     95 % 0.0 mm
02:07 0.6 °C -0.1 °C 1033.4 hPa Calm     95 % 0.0 mm
02:12 0.6 °C -0.1 °C 1033.4 hPa Calm     95 % 0.0 mm
02:17 0.8 °C 0.2 °C 1033.4 hPa Calm     96 % 0.0 mm
02:22 0.8 °C 0.2 °C 1033.4 hPa Calm     96 % 0.0 mm
02:27 0.7 °C 0.1 °C 1033.4 hPa Calm     96 % 0.3 mm
02:32 0.7 °C 0.1 °C 1033.4 hPa Calm     96 % 0.3 mm
02:37 0.7 °C 0.1 °C 1033.4 hPa Calm     96 % 0.3 mm
02:42 0.7 °C 0.1 °C 1033.7 hPa Calm     96 % 0.3 mm
02:47 0.8 °C 0.2 °C 1033.7 hPa Calm     96 % 0.3 mm
02:57 0.7 °C 0.1 °C 1033.4 hPa Calm     96 % 0.3 mm
03:02 0.6 °C 0.0 °C 1033.7 hPa Calm     96 % 0.3 mm
03:07 0.6 °C 0.0 °C 1033.4 hPa Calm     96 % 0.3 mm
03:12 0.4 °C -0.2 °C 1033.4 hPa Calm     96 % 0.3 mm
03:22 0.7 °C 0.3 °C 1033.4 hPa Calm     97 % 0.3 mm
03:27 0.5 °C -0.1 °C 1033.4 hPa Calm     96 % 0.0 mm
03:32 0.3 °C -0.3 °C 1033.4 hPa Calm     96 % 0.0 mm
03:37 0.3 °C -0.3 °C 1033.4 hPa Calm     96 % 0.0 mm
03:42 0.0 °C -0.7 °C 1033.7 hPa Calm     95 % 0.0 mm
03:47 -0.1 °C -0.8 °C 1033.4 hPa Calm     95 % 0.0 mm
03:52 -0.2 °C -0.8 °C 1033.4 hPa Calm     96 % 0.0 mm
03:57 -0.1 °C -0.7 °C 1033.4 hPa Calm     96 % 0.0 mm
04:02 -0.1 °C -0.7 °C 1033.4 hPa Calm     96 % 0.0 mm
04:07 -0.1 °C -0.7 °C 1033.4 hPa Calm     96 % 0.0 mm
04:12 -0.2 °C -0.8 °C 1033.4 hPa Calm     96 % 0.0 mm
04:17 -0.2 °C -0.8 °C 1033.4 hPa Calm     96 % 0.0 mm
04:22 -0.2 °C -0.8 °C 1033.4 hPa Calm     96 % 0.0 mm
04:27 -0.1 °C -0.7 °C 1033.4 hPa Calm     96 % 0.0 mm
04:37 -0.2 °C -0.8 °C 1033.4 hPa Calm     96 % 0.0 mm
04:42 -0.1 °C -0.5 °C 1033.4 hPa Calm     97 % 0.0 mm
04:47 0.0 °C -0.4 °C 1033.4 hPa Calm     97 % 0.0 mm
04:52 -0.1 °C -0.7 °C 1033.4 hPa Calm     96 % 0.0 mm
04:57 -0.2 °C -0.8 °C 1033.4 hPa Calm     96 % 0.0 mm
05:02 -0.6 °C -1.3 °C 1033.4 hPa WSW 1.6 km/h   95 % 0.0 mm
05:07 -0.2 °C -0.6 °C 1033.4 hPa SW 3.2 km/h 3.2 km/h 97 % 0.0 mm
05:12 0.1 °C -0.3 °C 1033.4 hPa Calm   4.8 km/h 97 % 0.0 mm
05:17 0.1 °C -0.3 °C 1033.4 hPa Calm   4.8 km/h 97 % 0.0 mm
05:22 0.0 °C -0.4 °C 1033.4 hPa Calm   4.8 km/h 97 % 0.0 mm
05:27 -0.3 °C -0.9 °C 1033.4 hPa Calm     96 % 0.0 mm
05:32 -0.3 °C -0.9 °C 1033.4 hPa Calm     96 % 0.0 mm
05:37 -0.1 °C -0.5 °C 1033.4 hPa Calm     97 % 0.0 mm
05:42 0.0 °C -0.4 °C 1033.4 hPa Calm     97 % 0.0 mm
05:47 -0.3 °C -0.9 °C 1033.4 hPa Calm     96 % 0.0 mm
05:52 -0.5 °C -1.1 °C 1033.4 hPa Calm     96 % 0.0 mm
05:57 -0.4 °C -1.0 °C 1033.4 hPa Calm     96 % 0.0 mm
06:02 -0.3 °C -0.9 °C 1033.4 hPa Calm     96 % 0.0 mm
06:07 -0.2 °C -0.6 °C 1033.4 hPa Calm     97 % 0.0 mm
06:12 -0.1 °C -0.5 °C 1033.4 hPa Calm     97 % 0.0 mm
06:17 0.1 °C -0.3 °C 1033.1 hPa Calm     97 % 0.0 mm
06:22 0.1 °C -0.3 °C 1033.1 hPa Calm     97 % 0.0 mm
06:32 -0.1 °C -0.7 °C 1033.4 hPa Calm     96 % 0.0 mm
06:37 -0.1 °C -0.7 °C 1033.4 hPa Calm     96 % 0.0 mm
06:42 -0.3 °C -0.9 °C 1033.4 hPa Calm     96 % 0.0 mm
06:52 -0.8 °C -1.5 °C 1033.4 hPa Calm     95 % 0.0 mm
06:57 -1.0 °C -1.7 °C 1033.7 hPa Calm     95 % 0.0 mm
07:02 -1.0 °C -1.6 °C 1033.7 hPa Calm     96 % 0.0 mm
07:07 -1.1 °C -1.7 °C 1033.7 hPa Calm     96 % 0.0 mm
07:12 -0.9 °C -1.5 °C 1033.7 hPa Calm     96 % 0.0 mm
07:22 -0.7 °C -1.3 °C 1033.7 hPa Calm     96 % 0.0 mm
07:27 -0.5 °C -0.9 °C 1033.7 hPa Calm     97 % 0.0 mm
07:32 -0.5 °C -1.1 °C 1033.7 hPa Calm     96 % 0.0 mm
07:37 -0.6 °C -1.2 °C 1034.1 hPa Calm     96 % 0.0 mm
07:42 -0.8 °C -1.4 °C 1034.1 hPa Calm     96 % 0.0 mm
07:47 -0.8 °C -1.4 °C 1034.1 hPa Calm     96 % 0.0 mm
07:52 -0.8 °C -1.4 °C 1034.1 hPa Calm     96 % 0.0 mm
07:57 -0.8 °C -1.4 °C 1034.1 hPa Calm     96 % 0.0 mm
08:02 -0.8 °C -1.4 °C 1034.1 hPa Calm     96 % 0.0 mm
08:07 -0.8 °C -1.4 °C 1034.1 hPa Calm     96 % 0.0 mm
08:17 -0.8 °C -1.4 °C 1034.1 hPa Calm     96 % 0.0 mm
08:22 -0.7 °C -1.3 °C 1034.1 hPa Calm     96 % 0.0 mm
08:27 -0.7 °C -1.3 °C 1034.1 hPa Calm     96 % 0.0 mm
08:32 -0.9 °C -1.5 °C 1034.1 hPa North 1.6 km/h   96 % 0.0 mm
08:37 -1.1 °C -1.7 °C 1034.1 hPa North 1.6 km/h 1.6 km/h 96 % 0.0 mm
08:42 -1.1 °C -1.7 °C 1034.1 hPa North 1.6 km/h 3.2 km/h 96 % 0.0 mm
08:47 -0.9 °C -1.5 °C 1034.1 hPa Calm   3.2 km/h 96 % 0.0 mm
08:52 -0.8 °C -1.4 °C 1034.1 hPa Calm   3.2 km/h 96 % 0.0 mm
08:57 -0.7 °C -1.3 °C 1034.1 hPa Calm   1.6 km/h 96 % 0.0 mm
09:02 -0.6 °C -1.2 °C 1034.4 hPa Calm   1.6 km/h 96 % 0.0 mm
09:12 -0.2 °C -0.8 °C 1034.1 hPa Calm     96 % 0.0 mm
09:17 -0.2 °C -0.8 °C 1034.4 hPa Calm     96 % 0.0 mm
09:22 -0.1 °C -0.7 °C 1034.4 hPa Calm     96 % 0.0 mm
09:27 0.2 °C -0.4 °C 1034.4 hPa Calm     96 % 0.0 mm
09:37 0.5 °C -0.1 °C 1034.4 hPa Calm     96 % 0.0 mm
09:42 0.8 °C 0.2 °C 1034.4 hPa Calm     96 % 0.0 mm
09:47 1.3 °C 0.7 °C 1034.1 hPa Calm     96 % 0.0 mm
09:57 1.4 °C 0.4 °C 1034.1 hPa Calm     93 % 0.0 mm
10:02 1.5 °C 0.3 °C 1034.1 hPa Calm     92 % 0.0 mm
10:07 1.6 °C 0.4 °C 1034.1 hPa Calm     92 % 0.0 mm
10:12 1.9 °C 0.6 °C 1034.1 hPa Calm     91 % 0.0 mm
10:17 2.2 °C 0.7 °C 1034.4 hPa Calm     90 % 0.0 mm
10:22 2.3 °C 0.7 °C 1034.4 hPa Calm     89 % 0.0 mm
10:32 2.6 °C 0.7 °C 1034.4 hPa Calm     87 % 0.0 mm
10:37 2.9 °C 0.8 °C 1034.4 hPa Calm     86 % 0.0 mm
10:42 3.1 °C 0.7 °C 1034.4 hPa Calm     84 % 0.0 mm
10:47 3.2 °C 0.8 °C 1034.4 hPa Calm     84 % 0.0 mm
10:52 3.4 °C 1.0 °C 1034.4 hPa Calm     84 % 0.0 mm
10:57 3.8 °C 1.3 °C 1034.1 hPa Calm     84 % 0.0 mm
11:02 4.3 °C 1.5 °C 1034.1 hPa Calm     82 % 0.0 mm
11:07 4.4 °C 1.3 °C 1034.1 hPa Calm     80 % 0.0 mm
11:12 4.4 °C 1.1 °C 1034.1 hPa Calm   1.6 km/h 79 % 0.0 mm
11:17 4.5 °C 1.2 °C 1033.7 hPa Calm   1.6 km/h 79 % 0.0 mm
11:22 4.5 °C 1.4 °C 1033.7 hPa Calm   1.6 km/h 80 % 0.0 mm
11:27 4.6 °C 1.4 °C 1033.7 hPa Calm   1.6 km/h 80 % 0.0 mm
11:32 4.8 °C 1.5 °C 1033.7 hPa SE 1.6 km/h 3.2 km/h 79 % 0.0 mm
11:37 5.0 °C 1.8 °C 1033.4 hPa Calm   4.8 km/h 80 % 0.0 mm
11:42 4.9 °C 1.2 °C 1033.4 hPa SSW 1.6 km/h 4.8 km/h 77 % 0.0 mm
11:47 4.9 °C 1.4 °C 1033.4 hPa Calm   4.8 km/h 78 % 0.0 mm
11:52 5.1 °C 1.4 °C 1033.4 hPa SW 1.6 km/h 4.8 km/h 77 % 0.0 mm
11:57 5.3 °C 1.8 °C 1033.4 hPa Calm   4.8 km/h 78 % 0.0 mm
12:02 5.7 °C 1.8 °C 1033.4 hPa Calm   1.6 km/h 76 % 0.0 mm
12:07 5.8 °C 1.9 °C 1033.4 hPa Calm   1.6 km/h 76 % 0.0 mm
12:12 5.9 °C 2.0 °C 1033.4 hPa Calm   1.6 km/h 76 % 0.0 mm
12:17 6.7 °C 2.4 °C 1033.4 hPa Calm   1.6 km/h 74 % 0.0 mm
12:22 7.0 °C 2.3 °C 1033.1 hPa Calm   1.6 km/h 72 % 0.0 mm
12:27 7.1 °C 2.6 °C 1033.1 hPa Calm   1.6 km/h 73 % 0.0 mm
12:32 7.4 °C 2.7 °C 1032.7 hPa SW 1.6 km/h 3.2 km/h 72 % 0.0 mm
12:42 7.2 °C 2.5 °C 1033.1 hPa SW 1.6 km/h 4.8 km/h 72 % 0.0 mm
12:47 7.2 °C 2.3 °C 1033.1 hPa SW 3.2 km/h 4.8 km/h 71 % 0.0 mm
12:57 7.5 °C 2.6 °C 1033.1 hPa Calm   4.8 km/h 71 % 0.0 mm
13:02 7.4 °C 2.3 °C 1033.1 hPa South 1.6 km/h 4.8 km/h 70 % 0.0 mm
13:07 7.6 °C 2.7 °C 1033.1 hPa Calm   3.2 km/h 71 % 0.0 mm
13:12 7.8 °C 2.9 °C 1032.7 hPa SSE 1.6 km/h 3.2 km/h 71 % 0.0 mm
13:17 7.9 °C 3.0 °C 1032.7 hPa Calm   3.2 km/h 71 % 0.0 mm
13:22 8.1 °C 3.0 °C 1032.7 hPa Calm   3.2 km/h 70 % 0.0 mm
13:27 8.2 °C 3.1 °C 1032.7 hPa Calm   1.6 km/h 70 % 0.0 mm
13:32 8.4 °C 2.8 °C 1033.1 hPa Calm   1.6 km/h 68 % 0.0 mm
13:37 8.3 °C 2.9 °C 1032.7 hPa Calm   1.6 km/h 69 % 0.0 mm
13:42 8.3 °C 2.9 °C 1032.7 hPa SSW 1.6 km/h 3.2 km/h 69 % 0.0 mm
13:47 8.2 °C 3.1 °C 1032.7 hPa Calm   3.2 km/h 70 % 0.0 mm
13:52 8.2 °C 3.1 °C 1032.7 hPa Calm   3.2 km/h 70 % 0.0 mm
13:57 8.2 °C 3.5 °C 1032.7 hPa Calm   3.2 km/h 72 % 0.0 mm
14:02 8.2 °C 3.5 °C 1032.7 hPa Calm   1.6 km/h 72 % 0.0 mm
14:07 8.1 °C 3.4 °C 1032.7 hPa Calm   3.2 km/h 72 % 0.0 mm
14:12 8.2 °C 3.6 °C 1032.7 hPa Calm   3.2 km/h 73 % 0.0 mm
14:17 8.4 °C 3.6 °C 1032.4 hPa Calm   3.2 km/h 72 % 0.0 mm
14:22 8.4 °C 3.6 °C 1032.4 hPa Calm     72 % 0.0 mm
14:27 8.6 °C 3.8 °C 1032.4 hPa Calm     72 % 0.0 mm
14:32 8.8 °C 3.8 °C 1032.4 hPa Calm     71 % 0.0 mm
14:37 8.8 °C 3.6 °C 1032.4 hPa Calm     70 % 0.0 mm
14:42 8.8 °C 3.6 °C 1032.4 hPa Calm     70 % 0.0 mm
14:47 8.7 °C 3.9 °C 1032.4 hPa Calm     72 % 0.0 mm
14:52 8.7 °C 3.9 °C 1032.4 hPa Calm     72 % 0.0 mm
14:57 8.8 °C 4.0 °C 1032.1 hPa Calm     72 % 0.0 mm
15:02 8.9 °C 4.1 °C 1032.1 hPa Calm     72 % 0.0 mm
15:07 9.0 °C 4.0 °C 1032.1 hPa ESE 3.2 km/h   71 % 0.0 mm
15:12 9.1 °C 4.3 °C 1032.1 hPa Calm   4.8 km/h 72 % 0.0 mm
15:17 9.1 °C 4.1 °C 1032.4 hPa Calm   4.8 km/h 71 % 0.0 mm
15:22 9.1 °C 3.9 °C 1032.4 hPa East 3.2 km/h 3.2 km/h 70 % 0.0 mm
15:27 9.1 °C 4.3 °C 1032.4 hPa Calm   3.2 km/h 72 % 0.0 mm
15:32 9.0 °C 4.0 °C 1032.1 hPa Calm   3.2 km/h 71 % 0.0 mm
15:37 8.9 °C 4.1 °C 1032.1 hPa Calm   3.2 km/h 72 % 0.0 mm
15:42 8.8 °C 3.8 °C 1032.1 hPa Calm   1.6 km/h 71 % 0.0 mm
15:47 8.7 °C 3.9 °C 1032.1 hPa Calm   1.6 km/h 72 % 0.0 mm
15:52 8.5 °C 3.7 °C 1032.1 hPa Calm   1.6 km/h 72 % 0.0 mm
15:57 8.3 °C 3.7 °C 1032.1 hPa Calm   1.6 km/h 73 % 0.0 mm
16:02 8.3 °C 3.7 °C 1032.1 hPa Calm   1.6 km/h 73 % 0.0 mm
16:07 8.2 °C 3.6 °C 1032.1 hPa Calm   1.6 km/h 73 % 0.0 mm
16:12 8.2 °C 3.6 °C 1032.4 hPa Calm   1.6 km/h 73 % 0.0 mm
16:17 8.1 °C 3.7 °C 1032.4 hPa Calm     74 % 0.0 mm
16:22 8.1 °C 3.7 °C 1032.4 hPa Calm     74 % 0.0 mm
16:27 8.0 °C 3.6 °C 1032.4 hPa Calm     74 % 0.0 mm
16:32 8.1 °C 3.7 °C 1032.1 hPa Calm     74 % 0.0 mm
16:37 7.9 °C 3.6 °C 1032.4 hPa Calm     74 % 0.0 mm
16:42 7.8 °C 3.5 °C 1032.4 hPa Calm     74 % 0.0 mm
16:47 7.6 °C 3.3 °C 1032.4 hPa Calm     74 % 0.0 mm
16:52 7.4 °C 3.1 °C 1032.4 hPa Calm     74 % 0.0 mm
16:57 7.3 °C 3.2 °C 1032.4 hPa Calm     75 % 0.0 mm
17:02 7.1 °C 3.0 °C 1032.4 hPa Calm     75 % 0.0 mm
17:07 6.8 °C 3.1 °C 1032.4 hPa Calm     77 % 0.0 mm
17:12 6.6 °C 3.0 °C 1032.1 hPa Calm     78 % 0.0 mm
17:17 6.5 °C 2.9 °C 1032.1 hPa Calm     78 % 0.0 mm
17:22 6.4 °C 2.8 °C 1032.1 hPa Calm   1.6 km/h 78 % 0.0 mm
17:27 6.0 °C 2.8 °C 1032.1 hPa WNW 1.6 km/h 1.6 km/h 80 % 0.0 mm
17:32 5.9 °C 2.7 °C 1032.1 hPa Calm   3.2 km/h 80 % 0.0 mm
17:42 5.8 °C 2.8 °C 1032.1 hPa Calm   1.6 km/h 81 % 0.0 mm
17:52 5.8 °C 2.8 °C 1032.4 hPa Calm   1.6 km/h 81 % 0.0 mm
17:57 6.0 °C 2.8 °C 1032.4 hPa Calm   1.6 km/h 80 % 0.0 mm
18:02 5.6 °C 2.2 °C 1032.4 hPa Calm   1.6 km/h 79 % 0.0 mm
18:07 5.1 °C 2.3 °C 1032.4 hPa Calm   1.6 km/h 82 % 0.0 mm
18:17 4.9 °C 2.3 °C 1032.4 hPa Calm   1.6 km/h 83 % 0.0 mm
18:22 4.8 °C 2.3 °C 1032.7 hPa Calm   1.6 km/h 84 % 0.0 mm
18:27 4.8 °C 2.3 °C 1032.7 hPa North 1.6 km/h 1.6 km/h 84 % 0.0 mm
18:37 4.8 °C 2.2 °C 1032.7 hPa WNW 3.2 km/h 3.2 km/h 83 % 0.0 mm
18:42 4.3 °C 2.0 °C 1032.7 hPa WNW 1.6 km/h 3.2 km/h 85 % 0.0 mm
18:52 3.9 °C 1.8 °C 1032.7 hPa WNW 1.6 km/h 3.2 km/h 86 % 0.0 mm
18:57 3.8 °C 1.7 °C 1032.7 hPa West 1.6 km/h 3.2 km/h 86 % 0.0 mm
19:02 3.7 °C 1.7 °C 1032.7 hPa WNW 1.6 km/h 3.2 km/h 87 % 0.0 mm
19:07 3.8 °C 1.8 °C 1033.1 hPa WNW 1.6 km/h 3.2 km/h 87 % 0.0 mm
19:17 4.4 °C 2.3 °C 1033.1 hPa West 1.6 km/h 3.2 km/h 86 % 0.0 mm
19:22 4.3 °C 1.8 °C 1033.1 hPa WNW 1.6 km/h 3.2 km/h 84 % 0.0 mm
19:27 4.3 °C 2.2 °C 1033.1 hPa Calm   1.6 km/h 86 % 0.0 mm
19:37 4.5 °C 2.0 °C 1033.4 hPa Calm   1.6 km/h 84 % 0.0 mm
19:42 4.7 °C 2.1 °C 1033.4 hPa Calm   1.6 km/h 83 % 0.0 mm
19:47 4.3 °C 1.7 °C 1033.4 hPa Calm   1.6 km/h 83 % 0.0 mm
19:52 4.6 °C 2.1 °C 1033.4 hPa Calm     84 % 0.0 mm
19:57 4.6 °C 2.0 °C 1033.4 hPa Calm     83 % 0.0 mm
20:07 4.3 °C 2.0 °C 1033.4 hPa Calm     85 % 0.0 mm
20:12 4.4 °C 1.9 °C 1033.4 hPa Calm     84 % 0.0 mm
20:17 4.4 °C 1.9 °C 1033.4 hPa Calm     84 % 0.0 mm
20:22 4.6 °C 2.1 °C 1033.4 hPa Calm     84 % 0.0 mm
20:32 4.7 °C 2.1 °C 1033.4 hPa Calm     83 % 0.0 mm
20:37 4.5 °C 1.7 °C 1033.7 hPa Calm   1.6 km/h 82 % 0.0 mm
20:42 3.8 °C 1.2 °C 1033.7 hPa Calm   1.6 km/h 83 % 0.0 mm
20:52 4.0 °C 1.9 °C 1033.7 hPa Calm     86 % 0.0 mm
20:57 4.2 °C 1.9 °C 1033.7 hPa Calm     85 % 0.0 mm
21:07 3.8 °C 1.7 °C 1033.7 hPa Calm     86 % 0.0 mm
21:12 3.7 °C 1.6 °C 1033.7 hPa Calm     86 % 0.0 mm
21:17 3.8 °C 1.7 °C 1033.7 hPa Calm     86 % 0.0 mm
21:22 3.8 °C 1.7 °C 1033.7 hPa Calm     86 % 0.0 mm
21:32 3.4 °C 1.4 °C 1033.7 hPa Calm     87 % 0.0 mm
21:42 2.9 °C 1.0 °C 1033.7 hPa Calm     87 % 0.0 mm
21:47 2.9 °C 1.3 °C 1033.7 hPa Calm     89 % 0.0 mm
21:52 2.9 °C 1.3 °C 1033.7 hPa Calm     89 % 0.0 mm
21:57 2.8 °C 1.0 °C 1033.7 hPa Calm     88 % 0.0 mm
22:02 2.6 °C 1.0 °C 1033.7 hPa Calm     89 % 0.0 mm
22:12 3.3 °C 1.5 °C 1033.7 hPa Calm     88 % 0.0 mm
22:17 3.4 °C 1.8 °C 1033.7 hPa Calm     89 % 0.0 mm
22:22 3.8 °C 1.8 °C 1033.7 hPa Calm     87 % 0.0 mm
22:32 3.3 °C 1.3 °C 1033.7 hPa Calm   4.8 km/h 87 % 0.0 mm
22:42 3.3 °C 1.3 °C 1033.7 hPa Calm   4.8 km/h 87 % 0.0 mm
22:47 3.1 °C 1.1 °C 1033.7 hPa Calm     87 % 0.0 mm
22:52 2.8 °C 0.9 °C 1033.7 hPa Calm     87 % 0.0 mm
22:57 2.6 °C 0.8 °C 1033.7 hPa Calm     88 % 0.0 mm
23:07 2.5 °C 0.9 °C 1033.7 hPa Calm     89 % 0.0 mm
23:12 2.4 °C 0.8 °C 1033.7 hPa Calm     89 % 0.0 mm
23:17 2.5 °C 1.0 °C 1033.7 hPa Calm   1.6 km/h 90 % 0.0 mm
23:22 2.7 °C 1.1 °C 1033.7 hPa Calm   1.6 km/h 89 % 0.0 mm
23:27 2.7 °C 1.1 °C 1033.7 hPa Calm   1.6 km/h 89 % 0.0 mm
23:32 2.7 °C 1.1 °C 1033.7 hPa Calm   1.6 km/h 89 % 0.0 mm
23:37 2.7 °C 1.1 °C 1033.7 hPa Calm     89 % 0.0 mm
23:42 2.6 °C 0.8 °C 1033.7 hPa Calm     88 % 0.0 mm
23:47 2.4 °C 0.8 °C 1033.7 hPa Calm     89 % 0.0 mm
23:52 2.2 °C 0.6 °C 1033.7 hPa Calm     89 % 0.0 mm
23:57 2.1 °C 0.6 °C 1033.7 hPa Calm     90 % 0.0 mm
Meteo18
Compliments of Weather Underground - 4 mb

Script developed by  Jim McMurry - jmcmurry@mwt.net Adapted for the template by  Wim van der Kuil - Leuven-Template.eu

You find our weather info also at:

European Weather Network

Weather Underground

Equipment we use:

Weather-station
Davis Vue

Weather-program
Meteohub

Weather-server
Raspberry PI 2 B+

Provider
1 and 1

Davis Vue

Meteohub

Raspberry PI 2 B+

1 and 1